• Join FlightAware (Why Join?)
  • Login
  • US Flag 
05:40AM EDT


 

Airport Tracker/Info


-or-


 

Live Flight TrackerFlight Track Log ✈ UCA3597 ✈ 14-Dec-2013 ✈ KIAD - KBGM

Flight Track Log - Related Links

Times and Time Zones

All times are in EST time to prevent confusion due to time zone crossing. See the UCA3597 flight status page for this flight to view local times or setup timezone preferences in your user account.

Time Position Orientation Groundspeed Altitude Reporting Facility
EST Latitude Longitude Course Direction KTS MPH feet Rate Location/Type
06:35PM 39.4352 -77.2480 19° North  Level Estimated
06:36PM 39.5048 -77.2175 19° North  Level Estimated
06:37PM 39.5744 -77.1869 19° North  Level Estimated
06:38PM 39.6441 -77.1563 19° North  Level Estimated
06:39PM 39.7137 -77.1256 19° North  Level Estimated
06:40PM 39.7833 -77.0948 19° North  Level Estimated
06:41PM 39.8529 -77.0640 19° North  Level Estimated
06:42PM 39.9225 -77.0331 19° North  Level Estimated
06:43PM 39.9921 -77.0022 19° North  Level Estimated
06:44PM 40.0616 -76.9711 19° North  Level Estimated
06:45PM 40.1312 -76.9401 19° North  Level Estimated
06:46PM 40.2008 -76.9089 19° North  Level Estimated
06:47PM 40.2703 -76.8777 19° North  Level Estimated
06:48PM 40.3399 -76.8465 19° North  Level Estimated
06:49PM 40.4094 -76.8151 19° North  Level Estimated
06:50PM 40.4789 -76.7837 19° North  Level Estimated
06:51PM 40.5485 -76.7523 19° North  Level Estimated
06:52PM 40.6180 -76.7207 19° North  Level Estimated
06:53PM 40.6875 -76.6891 19° North  Level Estimated
06:54PM 40.7570 -76.6575 19° North  Level Estimated
06:55PM 40.8264 -76.6257 19° North  Level Estimated
06:56PM 40.8959 -76.5940 19° North  Level Estimated
06:57PM 40.9654 -76.5621 19° North  Level Estimated
06:58PM 41.0349 -76.5302 19° North  Level Estimated
06:59PM 41.1043 -76.4982 19° North  Level Estimated
07:00PM 41.1737 -76.4661 19° North  Level Estimated
07:01PM 41.2432 -76.4340 19° North  Level Estimated
07:02PM 41.3126 -76.4018 19° North  Level Estimated
07:03PM 41.3820 -76.3695 19° North  Level Estimated
07:04PM 41.4514 -76.3372 19° North  Level Estimated
07:05PM 41.5208 -76.3048 19° North  Level Estimated
07:06PM 41.5902 -76.2723 19° North  Level Estimated
07:07PM 41.6596 -76.2397 19° North  Level Estimated
07:08PM 41.7289 -76.2071 19° North  Level Estimated
07:09PM 41.7983 -76.1744 19° North  Level Estimated
07:10PM 41.8676 -76.1417 19° North  Level Estimated
07:11PM 41.9370 -76.1088 19° North  Level Estimated
07:12PM 42.0063 -76.0760 19° North  Level Estimated
07:13PM 42.0756 -76.0430 19° North  Level Estimated
07:14PM 42.1450 -76.0099 19° North  Level Estimated
07:15PM 42.2084 -75.9796 19° North  Level Estimated
07:16PM 42.2084 -75.9796 35° Northeast  Level Estimated
07:17PM 42.2084 -75.9796 35° Northeast  Level Estimated
07:18PM 42.2084 -75.9796 35° Northeast  Level Estimated
07:19PM 42.2084 -75.9796 35° Northeast  Level Estimated
07:20PM 42.2084 -75.9796 35° Northeast  Level Estimated
07:21PM 42.2084 -75.9796 35° Northeast  Level Estimated
07:22PM 42.2084 -75.9796 35° Northeast  Level Estimated
07:23PM 42.2084 -75.9796 35° Northeast  Level Estimated
07:24PM 42.2084 -75.9796 35° Northeast  Level Estimated
07:25PM 42.2084 -75.9796 35° Northeast  Level Estimated
07:26PM 42.2084 -75.9796 35° Northeast  Level Estimated
07:27PM 42.2084 -75.9796 35° Northeast  Level Estimated
07:28PM 42.2084 -75.9796 35° Northeast  Level Estimated
07:29PM 42.2084 -75.9796 35° Northeast  Level Estimated
07:30PM 42.2084 -75.9796 35° Northeast  Level Estimated
07:31PM 42.2084 -75.9796 35° Northeast  Level Estimated